sensor_id;sensor_type;location;lat;lon;timestamp;P1;durP1;ratioP1;P2;durP2;ratioP2
64686;SDS011;51113;53.646;-113.674;2022-09-09T00:01:45;1.00;;;0.80;;
64686;SDS011;51113;53.646;-113.674;2022-09-09T00:04:36;0.85;;;0.80;;
64686;SDS011;51113;53.646;-113.674;2022-09-09T00:07:10;1.00;;;0.80;;
64686;SDS011;51113;53.646;-113.674;2022-09-09T00:09:46;1.42;;;1.05;;
64686;SDS011;51113;53.646;-113.674;2022-09-09T00:13:01;1.75;;;1.10;;
64686;SDS011;51113;53.646;-113.674;2022-09-09T00:15:57;8.55;;;1.00;;
64686;SDS011;51113;53.646;-113.674;2022-09-09T00:18:38;1.90;;;0.90;;
64686;SDS011;51113;53.646;-113.674;2022-09-09T00:21:30;3.25;;;1.00;;
64686;SDS011;51113;53.646;-113.674;2022-09-09T00:24:11;4.35;;;1.02;;
64686;SDS011;51113;53.646;-113.674;2022-09-09T00:26:57;3.40;;;1.20;;
64686;SDS011;51113;53.646;-113.674;2022-09-09T00:29:39;7.53;;;1.10;;
64686;SDS011;51113;53.646;-113.674;2022-09-09T00:32:14;2.30;;;0.90;;
64686;SDS011;51113;53.646;-113.674;2022-09-09T00:34:49;4.60;;;1.17;;
64686;SDS011;51113;53.646;-113.674;2022-09-09T00:37:22;2.03;;;1.20;;
64686;SDS011;51113;53.646;-113.674;2022-09-09T00:39:57;3.95;;;1.15;;
64686;SDS011;51113;53.646;-113.674;2022-09-09T00:42:34;1.63;;;1.00;;
64686;SDS011;51113;53.646;-113.674;2022-09-09T00:47:51;1.83;;;1.05;;
64686;SDS011;51113;53.646;-113.674;2022-09-09T00:56:12;1.52;;;1.20;;
64686;SDS011;51113;53.646;-113.674;2022-09-09T00:58:48;2.85;;;1.30;;
64686;SDS011;51113;53.646;-113.674;2022-09-09T01:01:34;2.72;;;1.17;;
64686;SDS011;51113;53.646;-113.674;2022-09-09T01:04:04;2.47;;;1.20;;
64686;SDS011;51113;53.646;-113.674;2022-09-09T01:06:44;2.85;;;1.20;;
64686;SDS011;51113;53.646;-113.674;2022-09-09T01:12:01;1.67;;;1.10;;
64686;SDS011;51113;53.646;-113.674;2022-09-09T01:14:40;4.43;;;1.30;;
64686;SDS011;51113;53.646;-113.674;2022-09-09T01:17:23;1.63;;;1.00;;
64686;SDS011;51113;53.646;-113.674;2022-09-09T01:28:47;7.03;;;1.30;;
64686;SDS011;51113;53.646;-113.674;2022-09-09T01:31:21;4.10;;;1.40;;
64686;SDS011;51113;53.646;-113.674;2022-09-09T01:33:56;7.43;;;1.40;;
64686;SDS011;51113;53.646;-113.674;2022-09-09T01:36:44;1.70;;;1.10;;
64686;SDS011;51113;53.646;-113.674;2022-09-09T01:39:34;1.77;;;1.20;;
64686;SDS011;51113;53.646;-113.674;2022-09-09T01:42:04;1.52;;;1.20;;
64686;SDS011;51113;53.646;-113.674;2022-09-09T01:44:36;2.53;;;1.08;;
64686;SDS011;51113;53.646;-113.674;2022-09-09T01:47:06;1.60;;;1.10;;
64686;SDS011;51113;53.646;-113.674;2022-09-09T01:49:35;4.32;;;1.40;;
64686;SDS011;51113;53.646;-113.674;2022-09-09T01:52:04;2.00;;;1.35;;
64686;SDS011;51113;53.646;-113.674;2022-09-09T01:54:33;3.63;;;1.65;;
64686;SDS011;51113;53.646;-113.674;2022-09-09T01:57:07;2.60;;;1.30;;
64686;SDS011;51113;53.646;-113.674;2022-09-09T02:02:44;1.45;;;1.00;;
64686;SDS011;51113;53.646;-113.674;2022-09-09T02:08:36;3.13;;;1.02;;
64686;SDS011;51113;53.646;-113.674;2022-09-09T02:11:15;1.35;;;1.00;;
64686;SDS011;51113;53.646;-113.674;2022-09-09T02:13:58;3.38;;;0.93;;
64686;SDS011;51113;53.646;-113.674;2022-09-09T02:19:35;0.70;;;0.70;;
64686;SDS011;51113;53.646;-113.674;2022-09-09T02:22:07;2.67;;;0.80;;
64686;SDS011;51113;53.646;-113.674;2022-09-09T02:24:39;6.15;;;0.80;;
64686;SDS011;51113;53.646;-113.674;2022-09-09T02:27:08;1.10;;;0.73;;
64686;SDS011;51113;53.646;-113.674;2022-09-09T02:29:40;1.15;;;0.80;;
64686;SDS011;51113;53.646;-113.674;2022-09-09T02:32:14;1.45;;;0.90;;
64686;SDS011;51113;53.646;-113.674;2022-09-09T02:35:05;1.70;;;0.80;;
64686;SDS011;51113;53.646;-113.674;2022-09-09T02:37:38;3.05;;;0.85;;
64686;SDS011;51113;53.646;-113.674;2022-09-09T02:40:10;0.95;;;0.75;;
64686;SDS011;51113;53.646;-113.674;2022-09-09T02:42:40;1.48;;;0.90;;
64686;SDS011;51113;53.646;-113.674;2022-09-09T02:45:12;2.08;;;0.82;;
64686;SDS011;51113;53.646;-113.674;2022-09-09T02:50:19;1.88;;;0.98;;
64686;SDS011;51113;53.646;-113.674;2022-09-09T02:55:47;4.13;;;1.00;;
64686;SDS011;51113;53.646;-113.674;2022-09-09T02:58:25;1.13;;;0.73;;
64686;SDS011;51113;53.646;-113.674;2022-09-09T03:00:54;10.07;;;1.10;;
64686;SDS011;51113;53.646;-113.674;2022-09-09T03:03:26;3.80;;;1.00;;
64686;SDS011;51113;53.646;-113.674;2022-09-09T03:05:55;0.70;;;0.70;;
64686;SDS011;51113;53.646;-113.674;2022-09-09T03:08:24;1.13;;;0.90;;
64686;SDS011;51113;53.646;-113.674;2022-09-09T03:10:59;1.20;;;0.90;;
64686;SDS011;51113;53.646;-113.674;2022-09-09T03:13:31;0.80;;;0.80;;
64686;SDS011;51113;53.646;-113.674;2022-09-09T03:16:00;4.53;;;0.90;;
64686;SDS011;51113;53.646;-113.674;2022-09-09T03:18:29;2.97;;;0.75;;
64686;SDS011;51113;53.646;-113.674;2022-09-09T03:20:58;1.00;;;0.90;;
64686;SDS011;51113;53.646;-113.674;2022-09-09T03:23:27;8.23;;;2.25;;
64686;SDS011;51113;53.646;-113.674;2022-09-09T03:25:56;2.47;;;1.13;;
64686;SDS011;51113;53.646;-113.674;2022-09-09T03:28:26;2.28;;;0.77;;
64686;SDS011;51113;53.646;-113.674;2022-09-09T03:30:59;2.50;;;0.90;;
64686;SDS011;51113;53.646;-113.674;2022-09-09T03:33:29;1.48;;;0.95;;
64686;SDS011;51113;53.646;-113.674;2022-09-09T03:35:58;1.17;;;0.80;;
64686;SDS011;51113;53.646;-113.674;2022-09-09T03:38:27;1.92;;;1.02;;
64686;SDS011;51113;53.646;-113.674;2022-09-09T03:40:56;1.80;;;0.95;;
64686;SDS011;51113;53.646;-113.674;2022-09-09T03:43:26;1.10;;;0.80;;
64686;SDS011;51113;53.646;-113.674;2022-09-09T03:45:54;5.07;;;1.15;;
64686;SDS011;51113;53.646;-113.674;2022-09-09T03:48:26;3.05;;;0.90;;
64686;SDS011;51113;53.646;-113.674;2022-09-09T03:50:56;1.10;;;1.00;;
64686;SDS011;51113;53.646;-113.674;2022-09-09T03:53:28;4.28;;;0.75;;
64686;SDS011;51113;53.646;-113.674;2022-09-09T03:55:58;0.68;;;0.68;;
64686;SDS011;51113;53.646;-113.674;2022-09-09T03:58:27;0.90;;;0.77;;
64686;SDS011;51113;53.646;-113.674;2022-09-09T04:00:57;1.33;;;0.73;;
64686;SDS011;51113;53.646;-113.674;2022-09-09T04:03:30;1.20;;;0.90;;
64686;SDS011;51113;53.646;-113.674;2022-09-09T04:06:00;2.72;;;0.90;;
64686;SDS011;51113;53.646;-113.674;2022-09-09T04:08:31;1.30;;;0.70;;
64686;SDS011;51113;53.646;-113.674;2022-09-09T04:11:04;0.95;;;0.73;;
64686;SDS011;51113;53.646;-113.674;2022-09-09T04:13:34;0.85;;;0.70;;
64686;SDS011;51113;53.646;-113.674;2022-09-09T04:16:05;2.20;;;0.70;;
64686;SDS011;51113;53.646;-113.674;2022-09-09T04:18:35;1.00;;;0.80;;
64686;SDS011;51113;53.646;-113.674;2022-09-09T04:21:04;1.17;;;1.02;;
64686;SDS011;51113;53.646;-113.674;2022-09-09T04:23:38;0.70;;;0.60;;
64686;SDS011;51113;53.646;-113.674;2022-09-09T04:26:07;1.98;;;0.80;;
64686;SDS011;51113;53.646;-113.674;2022-09-09T04:28:37;0.60;;;0.60;;
64686;SDS011;51113;53.646;-113.674;2022-09-09T04:31:06;0.68;;;0.60;;
64686;SDS011;51113;53.646;-113.674;2022-09-09T04:33:41;4.18;;;0.80;;
64686;SDS011;51113;53.646;-113.674;2022-09-09T04:36:10;3.20;;;0.80;;
64686;SDS011;51113;53.646;-113.674;2022-09-09T04:38:38;1.17;;;0.70;;
64686;SDS011;51113;53.646;-113.674;2022-09-09T04:41:07;0.70;;;0.70;;
64686;SDS011;51113;53.646;-113.674;2022-09-09T04:43:38;0.77;;;0.77;;
64686;SDS011;51113;53.646;-113.674;2022-09-09T04:46:07;1.67;;;0.90;;
64686;SDS011;51113;53.646;-113.674;2022-09-09T04:48:36;1.30;;;0.90;;
64686;SDS011;51113;53.646;-113.674;2022-09-09T04:51:05;0.80;;;0.70;;
64686;SDS011;51113;53.646;-113.674;2022-09-09T04:53:37;1.20;;;0.73;;
64686;SDS011;51113;53.646;-113.674;2022-09-09T04:56:06;0.70;;;0.70;;
64686;SDS011;51113;53.646;-113.674;2022-09-09T04:58:38;0.60;;;0.60;;
64686;SDS011;51113;53.646;-113.674;2022-09-09T05:01:16;1.35;;;0.80;;
64686;SDS011;51113;53.646;-113.674;2022-09-09T05:03:52;0.73;;;0.73;;
64686;SDS011;51113;53.646;-113.674;2022-09-09T05:06:21;0.95;;;0.82;;
64686;SDS011;51113;53.646;-113.674;2022-09-09T05:08:50;0.80;;;0.70;;
64686;SDS011;51113;53.646;-113.674;2022-09-09T05:11:26;3.65;;;1.00;;
64686;SDS011;51113;53.646;-113.674;2022-09-09T05:13:56;0.80;;;0.77;;
64686;SDS011;51113;53.646;-113.674;2022-09-09T05:16:24;0.70;;;0.70;;
64686;SDS011;51113;53.646;-113.674;2022-09-09T05:18:54;0.98;;;0.88;;
64686;SDS011;51113;53.646;-113.674;2022-09-09T05:21:23;1.10;;;0.90;;
64686;SDS011;51113;53.646;-113.674;2022-09-09T05:23:55;0.93;;;0.83;;
64686;SDS011;51113;53.646;-113.674;2022-09-09T05:26:25;2.72;;;1.20;;
64686;SDS011;51113;53.646;-113.674;2022-09-09T05:28:53;1.10;;;0.80;;
64686;SDS011;51113;53.646;-113.674;2022-09-09T05:31:22;1.65;;;0.90;;
64686;SDS011;51113;53.646;-113.674;2022-09-09T05:33:53;1.00;;;0.90;;
64686;SDS011;51113;53.646;-113.674;2022-09-09T05:36:22;3.83;;;0.95;;
64686;SDS011;51113;53.646;-113.674;2022-09-09T05:38:51;1.30;;;1.00;;
64686;SDS011;51113;53.646;-113.674;2022-09-09T05:41:21;1.20;;;0.80;;
64686;SDS011;51113;53.646;-113.674;2022-09-09T05:43:50;2.10;;;0.93;;
64686;SDS011;51113;53.646;-113.674;2022-09-09T05:46:20;2.40;;;1.00;;
64686;SDS011;51113;53.646;-113.674;2022-09-09T05:48:50;3.67;;;0.90;;
64686;SDS011;51113;53.646;-113.674;2022-09-09T05:51:22;15.07;;;2.03;;
64686;SDS011;51113;53.646;-113.674;2022-09-09T05:53:52;1.50;;;1.00;;
64686;SDS011;51113;53.646;-113.674;2022-09-09T05:56:23;0.80;;;0.80;;
64686;SDS011;51113;53.646;-113.674;2022-09-09T05:58:54;1.98;;;0.98;;
64686;SDS011;51113;53.646;-113.674;2022-09-09T06:01:25;3.95;;;0.90;;
64686;SDS011;51113;53.646;-113.674;2022-09-09T06:03:55;1.35;;;0.85;;
64686;SDS011;51113;53.646;-113.674;2022-09-09T06:06:24;0.70;;;0.70;;
64686;SDS011;51113;53.646;-113.674;2022-09-09T06:08:55;2.10;;;0.80;;
64686;SDS011;51113;53.646;-113.674;2022-09-09T06:11:29;2.05;;;1.00;;
64686;SDS011;51113;53.646;-113.674;2022-09-09T06:14:01;0.70;;;0.70;;
64686;SDS011;51113;53.646;-113.674;2022-09-09T06:16:30;1.33;;;1.00;;
64686;SDS011;51113;53.646;-113.674;2022-09-09T06:19:03;1.55;;;1.00;;
64686;SDS011;51113;53.646;-113.674;2022-09-09T06:21:33;1.15;;;0.98;;
64686;SDS011;51113;53.646;-113.674;2022-09-09T06:24:06;1.17;;;0.90;;
64686;SDS011;51113;53.646;-113.674;2022-09-09T06:26:35;0.90;;;0.80;;
64686;SDS011;51113;53.646;-113.674;2022-09-09T06:29:08;1.00;;;0.90;;
64686;SDS011;51113;53.646;-113.674;2022-09-09T06:31:38;2.35;;;1.60;;
64686;SDS011;51113;53.646;-113.674;2022-09-09T06:34:07;4.15;;;3.00;;
64686;SDS011;51113;53.646;-113.674;2022-09-09T06:36:37;10.95;;;8.25;;
64686;SDS011;51113;53.646;-113.674;2022-09-09T06:39:07;16.35;;;12.60;;
64686;SDS011;51113;53.646;-113.674;2022-09-09T06:41:40;25.48;;;16.58;;
64686;SDS011;51113;53.646;-113.674;2022-09-09T06:44:10;20.45;;;14.77;;
64686;SDS011;51113;53.646;-113.674;2022-09-09T06:46:39;17.23;;;12.10;;
64686;SDS011;51113;53.646;-113.674;2022-09-09T06:49:08;10.50;;;7.30;;
64686;SDS011;51113;53.646;-113.674;2022-09-09T06:51:38;6.97;;;3.88;;
64686;SDS011;51113;53.646;-113.674;2022-09-09T06:54:13;5.85;;;2.78;;
64686;SDS011;51113;53.646;-113.674;2022-09-09T06:56:41;2.97;;;2.28;;
64686;SDS011;51113;53.646;-113.674;2022-09-09T06:59:11;1.85;;;1.02;;
64686;SDS011;51113;53.646;-113.674;2022-09-09T07:01:41;1.88;;;1.25;;
64686;SDS011;51113;53.646;-113.674;2022-09-09T07:04:22;1.20;;;1.00;;
64686;SDS011;51113;53.646;-113.674;2022-09-09T07:06:51;0.93;;;0.93;;
64686;SDS011;51113;53.646;-113.674;2022-09-09T07:09:20;1.00;;;0.90;;
64686;SDS011;51113;53.646;-113.674;2022-09-09T07:11:52;1.42;;;1.10;;
64686;SDS011;51113;53.646;-113.674;2022-09-09T07:14:21;5.88;;;1.17;;
64686;SDS011;51113;53.646;-113.674;2022-09-09T07:16:50;1.13;;;0.80;;
64686;SDS011;51113;53.646;-113.674;2022-09-09T07:19:25;1.90;;;1.20;;
64686;SDS011;51113;53.646;-113.674;2022-09-09T07:21:54;1.20;;;0.95;;
64686;SDS011;51113;53.646;-113.674;2022-09-09T07:24:22;6.90;;;1.00;;
64686;SDS011;51113;53.646;-113.674;2022-09-09T07:26:52;1.13;;;1.00;;
64686;SDS011;51113;53.646;-113.674;2022-09-09T07:29:21;2.47;;;1.10;;
64686;SDS011;51113;53.646;-113.674;2022-09-09T07:31:49;1.63;;;1.20;;
64686;SDS011;51113;53.646;-113.674;2022-09-09T07:34:18;2.30;;;1.10;;
64686;SDS011;51113;53.646;-113.674;2022-09-09T07:36:47;2.35;;;1.35;;
64686;SDS011;51113;53.646;-113.674;2022-09-09T07:39:16;1.48;;;1.08;;
64686;SDS011;51113;53.646;-113.674;2022-09-09T07:41:46;1.13;;;1.00;;
64686;SDS011;51113;53.646;-113.674;2022-09-09T07:44:18;0.82;;;0.82;;
64686;SDS011;51113;53.646;-113.674;2022-09-09T07:46:49;1.45;;;1.00;;
64686;SDS011;51113;53.646;-113.674;2022-09-09T07:49:18;3.53;;;1.20;;
64686;SDS011;51113;53.646;-113.674;2022-09-09T07:51:56;4.70;;;1.33;;
64686;SDS011;51113;53.646;-113.674;2022-09-09T07:54:25;1.63;;;1.20;;
64686;SDS011;51113;53.646;-113.674;2022-09-09T07:56:54;1.52;;;1.17;;
64686;SDS011;51113;53.646;-113.674;2022-09-09T07:59:28;1.42;;;1.20;;
64686;SDS011;51113;53.646;-113.674;2022-09-09T08:01:58;5.47;;;1.20;;
64686;SDS011;51113;53.646;-113.674;2022-09-09T08:04:27;1.88;;;1.00;;
64686;SDS011;51113;53.646;-113.674;2022-09-09T08:06:56;1.38;;;1.25;;
64686;SDS011;51113;53.646;-113.674;2022-09-09T08:09:27;1.60;;;1.10;;
64686;SDS011;51113;53.646;-113.674;2022-09-09T08:12:00;1.35;;;1.13;;
64686;SDS011;51113;53.646;-113.674;2022-09-09T08:14:29;1.20;;;1.10;;
64686;SDS011;51113;53.646;-113.674;2022-09-09T08:16:58;2.55;;;1.30;;
64686;SDS011;51113;53.646;-113.674;2022-09-09T08:19:27;1.67;;;1.10;;
64686;SDS011;51113;53.646;-113.674;2022-09-09T08:22:02;1.77;;;1.45;;
64686;SDS011;51113;53.646;-113.674;2022-09-09T08:24:31;2.08;;;1.30;;
64686;SDS011;51113;53.646;-113.674;2022-09-09T08:26:59;5.82;;;1.58;;
64686;SDS011;51113;53.646;-113.674;2022-09-09T08:29:29;2.00;;;1.58;;
64686;SDS011;51113;53.646;-113.674;2022-09-09T08:31:58;2.30;;;1.48;;
64686;SDS011;51113;53.646;-113.674;2022-09-09T08:34:27;3.20;;;1.63;;
64686;SDS011;51113;53.646;-113.674;2022-09-09T08:36:57;1.55;;;1.23;;
64686;SDS011;51113;53.646;-113.674;2022-09-09T08:39:26;2.55;;;1.55;;
64686;SDS011;51113;53.646;-113.674;2022-09-09T08:45:14;1.98;;;1.52;;
64686;SDS011;51113;53.646;-113.674;2022-09-09T08:50:51;1.77;;;1.38;;
64686;SDS011;51113;53.646;-113.674;2022-09-09T08:53:23;2.28;;;1.55;;
64686;SDS011;51113;53.646;-113.674;2022-09-09T08:55:58;6.65;;;1.77;;
64686;SDS011;51113;53.646;-113.674;2022-09-09T08:58:33;2.95;;;1.67;;
64686;SDS011;51113;53.646;-113.674;2022-09-09T09:11:54;3.08;;;1.92;;
64686;SDS011;51113;53.646;-113.674;2022-09-09T09:14:34;2.05;;;1.52;;
64686;SDS011;51113;53.646;-113.674;2022-09-09T09:17:06;5.10;;;1.88;;
64686;SDS011;51113;53.646;-113.674;2022-09-09T09:19:43;2.60;;;1.80;;
64686;SDS011;51113;53.646;-113.674;2022-09-09T09:22:18;2.63;;;1.80;;
64686;SDS011;51113;53.646;-113.674;2022-09-09T09:25:01;2.95;;;2.03;;
64686;SDS011;51113;53.646;-113.674;2022-09-09T09:30:29;2.67;;;1.95;;
64686;SDS011;51113;53.646;-113.674;2022-09-09T09:35:48;2.92;;;1.73;;
64686;SDS011;51113;53.646;-113.674;2022-09-09T09:38:22;7.53;;;1.73;;
64686;SDS011;51113;53.646;-113.674;2022-09-09T09:41:12;3.08;;;1.83;;
64686;SDS011;51113;53.646;-113.674;2022-09-09T09:43:41;5.95;;;2.17;;
64686;SDS011;51113;53.646;-113.674;2022-09-09T09:46:21;3.95;;;2.10;;
64686;SDS011;51113;53.646;-113.674;2022-09-09T09:49:02;5.90;;;2.78;;
64686;SDS011;51113;53.646;-113.674;2022-09-09T09:51:36;5.22;;;2.55;;
64686;SDS011;51113;53.646;-113.674;2022-09-09T09:54:07;3.75;;;2.30;;
64686;SDS011;51113;53.646;-113.674;2022-09-09T09:56:37;4.13;;;2.40;;
64686;SDS011;51113;53.646;-113.674;2022-09-09T09:59:05;4.72;;;2.45;;
64686;SDS011;51113;53.646;-113.674;2022-09-09T10:04:43;3.38;;;2.33;;
64686;SDS011;51113;53.646;-113.674;2022-09-09T10:07:22;3.60;;;2.50;;
64686;SDS011;51113;53.646;-113.674;2022-09-09T10:09:52;3.13;;;2.03;;
64686;SDS011;51113;53.646;-113.674;2022-09-09T10:12:45;10.10;;;2.67;;
64686;SDS011;51113;53.646;-113.674;2022-09-09T10:15:39;8.95;;;3.20;;
64686;SDS011;51113;53.646;-113.674;2022-09-09T10:37:47;7.82;;;2.70;;
64686;SDS011;51113;53.646;-113.674;2022-09-09T11:00:17;3.78;;;2.45;;
64686;SDS011;51113;53.646;-113.674;2022-09-09T11:02:56;8.63;;;2.65;;
64686;SDS011;51113;53.646;-113.674;2022-09-09T11:05:42;4.85;;;2.65;;
64686;SDS011;51113;53.646;-113.674;2022-09-09T11:08:20;3.88;;;2.30;;
64686;SDS011;51113;53.646;-113.674;2022-09-09T11:19:45;5.75;;;2.58;;
64686;SDS011;51113;53.646;-113.674;2022-09-09T11:22:18;16.15;;;2.60;;
64686;SDS011;51113;53.646;-113.674;2022-09-09T11:30:18;10.32;;;3.40;;
64686;SDS011;51113;53.646;-113.674;2022-09-09T11:41:16;3.58;;;2.53;;
64686;SDS011;51113;53.646;-113.674;2022-09-09T11:43:53;3.40;;;2.50;;
64686;SDS011;51113;53.646;-113.674;2022-09-09T11:46:22;4.53;;;2.80;;
64686;SDS011;51113;53.646;-113.674;2022-09-09T11:49:04;3.25;;;2.38;;
64686;SDS011;51113;53.646;-113.674;2022-09-09T11:51:34;8.88;;;2.72;;
64686;SDS011;51113;53.646;-113.674;2022-09-09T11:56:58;4.93;;;2.75;;
64686;SDS011;51113;53.646;-113.674;2022-09-09T12:01:58;5.22;;;2.83;;
64686;SDS011;51113;53.646;-113.674;2022-09-09T12:04:40;6.45;;;2.53;;
64686;SDS011;51113;53.646;-113.674;2022-09-09T12:07:34;8.45;;;2.78;;
64686;SDS011;51113;53.646;-113.674;2022-09-09T12:10:24;4.45;;;2.78;;
64686;SDS011;51113;53.646;-113.674;2022-09-09T12:13:19;4.25;;;2.67;;
64686;SDS011;51113;53.646;-113.674;2022-09-09T12:15:48;4.82;;;2.63;;
64686;SDS011;51113;53.646;-113.674;2022-09-09T12:21:14;7.50;;;2.22;;
64686;SDS011;51113;53.646;-113.674;2022-09-09T12:24:10;8.27;;;2.85;;
64686;SDS011;51113;53.646;-113.674;2022-09-09T12:26:43;3.47;;;2.25;;
64686;SDS011;51113;53.646;-113.674;2022-09-09T12:29:47;5.22;;;2.63;;
64686;SDS011;51113;53.646;-113.674;2022-09-09T12:32:22;5.03;;;2.60;;
64686;SDS011;51113;53.646;-113.674;2022-09-09T12:34:53;10.32;;;2.28;;
64686;SDS011;51113;53.646;-113.674;2022-09-09T12:37:29;3.83;;;2.55;;
64686;SDS011;51113;53.646;-113.674;2022-09-09T12:40:04;3.05;;;2.30;;
64686;SDS011;51113;53.646;-113.674;2022-09-09T12:42:46;3.35;;;2.25;;
64686;SDS011;51113;53.646;-113.674;2022-09-09T12:45:22;5.10;;;2.65;;
64686;SDS011;51113;53.646;-113.674;2022-09-09T12:50:31;3.92;;;2.40;;
64686;SDS011;51113;53.646;-113.674;2022-09-09T12:53:25;3.75;;;2.22;;
64686;SDS011;51113;53.646;-113.674;2022-09-09T12:56:02;7.57;;;2.45;;
64686;SDS011;51113;53.646;-113.674;2022-09-09T12:58:38;4.25;;;2.58;;
64686;SDS011;51113;53.646;-113.674;2022-09-09T13:01:17;4.35;;;2.80;;
64686;SDS011;51113;53.646;-113.674;2022-09-09T13:03:50;7.40;;;2.78;;
64686;SDS011;51113;53.646;-113.674;2022-09-09T13:06:29;5.07;;;2.90;;
64686;SDS011;51113;53.646;-113.674;2022-09-09T13:08:59;5.45;;;2.85;;
64686;SDS011;51113;53.646;-113.674;2022-09-09T13:11:36;5.63;;;2.47;;
64686;SDS011;51113;53.646;-113.674;2022-09-09T13:14:16;4.20;;;2.55;;
64686;SDS011;51113;53.646;-113.674;2022-09-09T13:16:55;3.08;;;2.22;;
64686;SDS011;51113;53.646;-113.674;2022-09-09T13:19:33;5.15;;;2.53;;
64686;SDS011;51113;53.646;-113.674;2022-09-09T13:22:13;2.65;;;1.80;;
64686;SDS011;51113;53.646;-113.674;2022-09-09T13:24:57;3.50;;;2.10;;
64686;SDS011;51113;53.646;-113.674;2022-09-09T13:27:35;2.97;;;2.03;;
64686;SDS011;51113;53.646;-113.674;2022-09-09T13:35:56;2.40;;;1.77;;
64686;SDS011;51113;53.646;-113.674;2022-09-09T13:38:35;6.30;;;2.53;;
64686;SDS011;51113;53.646;-113.674;2022-09-09T13:41:08;3.17;;;1.98;;
64686;SDS011;51113;53.646;-113.674;2022-09-09T13:43:43;5.93;;;2.20;;
64686;SDS011;51113;53.646;-113.674;2022-09-09T13:46:25;3.70;;;2.22;;
64686;SDS011;51113;53.646;-113.674;2022-09-09T13:48:59;10.82;;;2.33;;
64686;SDS011;51113;53.646;-113.674;2022-09-09T13:51:32;3.60;;;1.80;;
64686;SDS011;51113;53.646;-113.674;2022-09-09T13:54:15;3.58;;;2.38;;
64686;SDS011;51113;53.646;-113.674;2022-09-09T13:56:46;3.08;;;2.00;;
64686;SDS011;51113;53.646;-113.674;2022-09-09T13:59:16;7.35;;;2.10;;
64686;SDS011;51113;53.646;-113.674;2022-09-09T14:01:49;3.80;;;2.05;;
64686;SDS011;51113;53.646;-113.674;2022-09-09T14:04:20;9.45;;;2.40;;
64686;SDS011;51113;53.646;-113.674;2022-09-09T14:06:49;10.30;;;2.25;;
64686;SDS011;51113;53.646;-113.674;2022-09-09T14:09:18;7.70;;;2.38;;
64686;SDS011;51113;53.646;-113.674;2022-09-09T14:11:47;5.50;;;2.10;;
64686;SDS011;51113;53.646;-113.674;2022-09-09T14:14:16;2.85;;;1.85;;
64686;SDS011;51113;53.646;-113.674;2022-09-09T14:16:48;6.10;;;1.70;;
64686;SDS011;51113;53.646;-113.674;2022-09-09T14:19:16;3.65;;;2.28;;
64686;SDS011;51113;53.646;-113.674;2022-09-09T14:21:46;3.38;;;2.17;;
64686;SDS011;51113;53.646;-113.674;2022-09-09T14:24:14;5.28;;;2.20;;
64686;SDS011;51113;53.646;-113.674;2022-09-09T14:26:43;3.10;;;1.35;;
64686;SDS011;51113;53.646;-113.674;2022-09-09T14:29:12;3.45;;;1.88;;
64686;SDS011;51113;53.646;-113.674;2022-09-09T14:31:40;9.32;;;1.90;;
64686;SDS011;51113;53.646;-113.674;2022-09-09T14:34:08;3.28;;;1.75;;
64686;SDS011;51113;53.646;-113.674;2022-09-09T14:36:38;8.43;;;1.70;;
64686;SDS011;51113;53.646;-113.674;2022-09-09T14:39:07;10.32;;;1.95;;
64686;SDS011;51113;53.646;-113.674;2022-09-09T14:41:35;3.53;;;1.73;;
64686;SDS011;51113;53.646;-113.674;2022-09-09T14:44:04;3.40;;;1.80;;
64686;SDS011;51113;53.646;-113.674;2022-09-09T14:46:34;6.20;;;1.65;;
64686;SDS011;51113;53.646;-113.674;2022-09-09T14:49:03;4.82;;;1.45;;
64686;SDS011;51113;53.646;-113.674;2022-09-09T14:51:32;2.70;;;1.45;;
64686;SDS011;51113;53.646;-113.674;2022-09-09T14:54:02;2.13;;;1.52;;
64686;SDS011;51113;53.646;-113.674;2022-09-09T14:56:31;11.25;;;1.92;;
64686;SDS011;51113;53.646;-113.674;2022-09-09T14:59:02;13.70;;;1.80;;
64686;SDS011;51113;53.646;-113.674;2022-09-09T15:01:31;1.30;;;1.20;;
64686;SDS011;51113;53.646;-113.674;2022-09-09T15:04:02;1.92;;;1.42;;
64686;SDS011;51113;53.646;-113.674;2022-09-09T15:06:33;2.58;;;1.42;;
64686;SDS011;51113;53.646;-113.674;2022-09-09T15:09:06;3.65;;;1.70;;
64686;SDS011;51113;53.646;-113.674;2022-09-09T15:11:35;2.13;;;1.40;;
64686;SDS011;51113;53.646;-113.674;2022-09-09T15:14:05;3.60;;;1.40;;
64686;SDS011;51113;53.646;-113.674;2022-09-09T15:16:35;4.80;;;1.20;;
64686;SDS011;51113;53.646;-113.674;2022-09-09T15:19:04;4.35;;;1.38;;
64686;SDS011;51113;53.646;-113.674;2022-09-09T15:21:34;3.65;;;1.30;;
64686;SDS011;51113;53.646;-113.674;2022-09-09T15:24:04;2.13;;;1.20;;
64686;SDS011;51113;53.646;-113.674;2022-09-09T15:26:36;1.67;;;1.17;;
64686;SDS011;51113;53.646;-113.674;2022-09-09T15:29:06;2.45;;;1.10;;
64686;SDS011;51113;53.646;-113.674;2022-09-09T15:31:35;5.35;;;1.40;;
64686;SDS011;51113;53.646;-113.674;2022-09-09T15:34:05;3.10;;;1.20;;
64686;SDS011;51113;53.646;-113.674;2022-09-09T15:36:36;2.17;;;1.15;;
64686;SDS011;51113;53.646;-113.674;2022-09-09T15:39:07;1.23;;;1.02;;
64686;SDS011;51113;53.646;-113.674;2022-09-09T15:41:40;4.68;;;1.63;;
64686;SDS011;51113;53.646;-113.674;2022-09-09T15:44:09;2.60;;;1.60;;
64686;SDS011;51113;53.646;-113.674;2022-09-09T15:46:40;2.95;;;1.10;;
64686;SDS011;51113;53.646;-113.674;2022-09-09T15:49:18;1.45;;;1.00;;
64686;SDS011;51113;53.646;-113.674;2022-09-09T15:51:57;5.38;;;1.10;;
64686;SDS011;51113;53.646;-113.674;2022-09-09T15:54:32;4.32;;;1.10;;
64686;SDS011;51113;53.646;-113.674;2022-09-09T15:57:02;2.70;;;1.15;;
64686;SDS011;51113;53.646;-113.674;2022-09-09T15:59:32;4.60;;;1.10;;
64686;SDS011;51113;53.646;-113.674;2022-09-09T16:02:01;2.50;;;1.40;;
64686;SDS011;51113;53.646;-113.674;2022-09-09T16:04:30;1.23;;;0.90;;
64686;SDS011;51113;53.646;-113.674;2022-09-09T16:07:03;2.05;;;1.00;;
64686;SDS011;51113;53.646;-113.674;2022-09-09T16:09:33;1.70;;;0.90;;
64686;SDS011;51113;53.646;-113.674;2022-09-09T16:12:03;1.23;;;1.00;;
64686;SDS011;51113;53.646;-113.674;2022-09-09T16:14:37;4.13;;;1.05;;
64686;SDS011;51113;53.646;-113.674;2022-09-09T16:17:06;1.13;;;0.98;;
64686;SDS011;51113;53.646;-113.674;2022-09-09T16:19:35;3.80;;;1.10;;
64686;SDS011;51113;53.646;-113.674;2022-09-09T16:22:04;0.85;;;0.80;;
64686;SDS011;51113;53.646;-113.674;2022-09-09T16:24:34;1.80;;;0.80;;
64686;SDS011;51113;53.646;-113.674;2022-09-09T16:27:03;1.95;;;0.82;;
64686;SDS011;51113;53.646;-113.674;2022-09-09T16:29:32;4.85;;;0.90;;
64686;SDS011;51113;53.646;-113.674;2022-09-09T16:32:00;5.30;;;1.00;;
64686;SDS011;51113;53.646;-113.674;2022-09-09T16:34:29;0.80;;;0.80;;
64686;SDS011;51113;53.646;-113.674;2022-09-09T16:36:58;0.93;;;0.80;;
64686;SDS011;51113;53.646;-113.674;2022-09-09T16:39:27;2.65;;;0.68;;
64686;SDS011;51113;53.646;-113.674;2022-09-09T16:41:55;6.35;;;0.95;;
64686;SDS011;51113;53.646;-113.674;2022-09-09T16:44:24;2.05;;;0.95;;
64686;SDS011;51113;53.646;-113.674;2022-09-09T16:46:53;5.43;;;1.25;;
64686;SDS011;51113;53.646;-113.674;2022-09-09T16:49:26;3.17;;;1.00;;
64686;SDS011;51113;53.646;-113.674;2022-09-09T16:51:57;4.03;;;1.20;;
64686;SDS011;51113;53.646;-113.674;2022-09-09T16:54:27;2.05;;;0.80;;
64686;SDS011;51113;53.646;-113.674;2022-09-09T16:56:57;1.25;;;0.80;;
64686;SDS011;51113;53.646;-113.674;2022-09-09T16:59:26;0.70;;;0.70;;
64686;SDS011;51113;53.646;-113.674;2022-09-09T17:01:58;3.10;;;0.80;;